Time;durP1;ratioP1;P1;durP2;ratioP2;P2;SDS_P1;SDS_P2;PMS_P1;PMS_P2;Temp;Humidity;BMP_temperature;BMP_pressure;BME280_temperature;BME280_humidity;BME280_pressure;Samples;Min_cycle;Max_cycle;Signal;HPM_P1;HPM_P2
2021/05/06 00:01:53;;;;;;;26.48;2.65;;;4.10;99.90;;;;;;4970470;28;20101;-86
2021/05/06 00:34:16;;;;;;;16.57;2.83;;;3.50;99.90;;;;;;5035304;28;20546;-83
2021/05/06 00:36:45;;;;;;;18.50;2.72;;;3.50;99.90;;;;;;5049670;28;20033;-88
2021/05/06 00:39:15;;;;;;;16.25;1.90;;;3.50;99.90;;;;;;5018089;28;20040;-86
2021/05/06 01:05:39;;;;;;;10.02;2.38;;;3.40;99.90;;;;;;5001564;28;20093;-87
2021/05/06 01:13:36;;;;;;;11.45;2.28;;;3.20;99.90;;;;;;4956198;29;20074;-81
2021/05/06 01:16:03;;;;;;;9.25;2.10;;;3.20;99.90;;;;;;4921996;29;20472;-86
2021/05/06 01:18:30;;;;;;;11.48;2.00;;;3.20;99.90;;;;;;4917815;29;20138;-83
2021/05/06 01:20:59;;;;;;;8.93;2.20;;;3.40;99.90;;;;;;4949484;29;20146;-85
2021/05/06 01:23:27;;;;;;;12.73;2.33;;;3.40;99.90;;;;;;4953446;29;20047;-84
2021/05/06 01:26:03;;;;;;;18.58;2.83;;;3.20;99.90;;;;;;4953218;28;20131;-86
2021/05/06 01:28:37;;;;;;;10.10;2.50;;;3.30;99.90;;;;;;4936627;29;20058;-86
2021/05/06 01:31:14;;;;;;;18.90;2.45;;;3.90;99.90;;;;;;4932700;29;20039;-85
2021/05/06 01:33:46;;;;;;;11.45;2.35;;;3.80;99.90;;;;;;4951316;28;20524;-84
2021/05/06 01:36:25;;;;;;;17.10;2.70;;;3.60;99.90;;;;;;4935356;29;20143;-87
2021/05/06 01:47:37;;;;;;;11.23;2.03;;;3.60;99.90;;;;;;4973275;28;20049;-88
2021/05/06 02:00:18;;;;;;;9.68;1.80;;;3.60;99.90;;;;;;5044032;28;20222;-82
2021/05/06 02:02:46;;;;;;;6.53;1.40;;;3.50;99.90;;;;;;5034569;28;20043;-84
2021/05/06 02:05:12;;;;;;;9.90;1.85;;;3.50;99.90;;;;;;5042277;28;20107;-82
2021/05/06 02:07:40;;;;;;;8.38;1.63;;;3.40;99.90;;;;;;5041026;28;20053;-81
2021/05/06 02:10:10;;;;;;;8.88;1.42;;;3.50;99.90;;;;;;5028055;28;20099;-86
2021/05/06 02:12:37;;;;;;;10.77;1.65;;;3.40;99.90;;;;;;5004769;28;20540;-87
2021/05/06 02:15:09;;;;;;;6.40;1.67;;;3.40;99.90;;;;;;5012310;28;20041;-86
2021/05/06 02:17:35;;;;;;;8.75;1.85;;;3.40;99.90;;;;;;5034999;28;20029;-85
2021/05/06 02:20:03;;;;;;;5.85;1.70;;;3.60;99.90;;;;;;5031541;28;20056;-90
2021/05/06 02:22:32;;;;;;;8.85;1.80;;;3.40;99.90;;;;;;5036011;28;20033;-85
2021/05/06 02:24:58;;;;;;;12.75;1.80;;;3.40;99.90;;;;;;5029458;28;20098;-83
2021/05/06 02:27:23;;;;;;;9.57;1.88;;;3.40;99.90;;;;;;5047575;28;20485;-85
2021/05/06 02:29:50;;;;;;;13.25;2.10;;;3.40;99.90;;;;;;5012639;28;20416;-82
2021/05/06 02:32:16;;;;;;;8.10;1.77;;;3.30;99.90;;;;;;5043344;28;20036;-89
2021/05/06 02:34:41;;;;;;;7.93;1.90;;;3.40;99.90;;;;;;5051612;28;20033;-84
2021/05/06 02:37:10;;;;;;;11.15;2.03;;;3.30;99.90;;;;;;5019568;28;20049;-83
2021/05/06 02:39:36;;;;;;;8.02;1.67;;;3.30;99.90;;;;;;5026823;28;20038;-83
2021/05/06 02:42:02;;;;;;;10.80;2.00;;;3.40;99.90;;;;;;5054992;28;20041;-86
2021/05/06 02:44:28;;;;;;;10.80;1.75;;;3.10;99.90;;;;;;5051915;28;20139;-84
2021/05/06 02:46:55;;;;;;;8.88;2.20;;;3.10;99.90;;;;;;5045364;28;20040;-82
2021/05/06 02:49:22;;;;;;;10.45;2.05;;;3.10;99.90;;;;;;5038214;28;20033;-83
2021/05/06 02:51:55;;;;;;;10.45;2.20;;;3.30;99.90;;;;;;5048148;28;20037;-85
2021/05/06 02:54:21;;;;;;;6.57;1.77;;;3.40;99.90;;;;;;5048582;28;20037;-88
2021/05/06 02:57:07;;;;;;;10.05;1.92;;;3.00;99.90;;;;;;5055327;28;20063;-86
2021/05/06 03:05:04;;;;;;;7.17;1.80;;;3.10;99.90;;;;;;5027162;28;20120;-84
2021/05/06 03:07:32;;;;;;;6.20;1.63;;;3.10;99.90;;;;;;5003431;28;20061;-83
2021/05/06 03:10:06;;;;;;;9.43;1.80;;;3.00;99.90;;;;;;4999318;28;20141;-81
2021/05/06 03:13:01;;;;;;;7.07;1.52;;;3.00;99.90;;;;;;5010882;28;20072;-82
2021/05/06 03:23:52;;;;;;;5.78;1.48;;;2.90;99.90;;;;;;4979459;28;20057;-88
2021/05/06 03:26:18;;;;;;;8.90;1.75;;;3.40;99.90;;;;;;4979925;28;20059;-83
2021/05/06 03:28:57;;;;;;;7.45;1.65;;;2.80;99.90;;;;;;4977795;28;20081;-85
2021/05/06 04:12:40;;;;;;;14.98;4.28;;;3.10;99.90;;;;;;5036341;28;20140;-84
2021/05/06 04:18:01;;;;;;;11.30;4.35;;;3.00;99.90;;;;;;4990352;28;20073;-88
2021/05/06 04:35:24;;;;;;;15.73;5.50;;;3.20;99.90;;;;;;4978831;28;20129;-86
2021/05/06 04:39:16;;;;;;;17.05;5.63;;;3.60;99.90;;;;;;4993515;28;20066;-85
2021/05/06 04:54:56;;;;;;;14.98;5.97;;;3.60;99.90;;;;;;5051433;28;20040;-84
2021/05/06 05:05:26;;;;;;;12.33;5.97;;;4.00;99.90;;;;;;5045803;28;20041;-83
2021/05/06 05:07:56;;;;;;;17.23;6.72;;;3.80;99.90;;;;;;5041996;28;20041;-84
2021/05/06 05:10:31;;;;;;;12.80;6.45;;;3.80;99.90;;;;;;5042918;28;20052;-82
2021/05/06 05:18:53;;;;;;;15.07;6.20;;;4.10;99.90;;;;;;5040032;28;20061;-84
2021/05/06 05:23:43;;;;;;;9.13;5.57;;;4.30;99.90;;;;;;5020693;28;20075;-86
2021/05/06 05:26:11;;;;;;;10.82;5.82;;;4.30;99.90;;;;;;5007935;28;20056;-83
2021/05/06 05:28:38;;;;;;;12.27;6.00;;;4.60;99.90;;;;;;5051162;28;20060;-82
2021/05/06 05:31:04;;;;;;;11.75;6.05;;;4.70;99.90;;;;;;5022175;28;20037;-84
2021/05/06 05:33:34;;;;;;;10.00;5.30;;;4.90;99.90;;;;;;5004406;28;20041;-82
2021/05/06 05:36:19;;;;;;;8.70;5.10;;;4.80;99.90;;;;;;5049352;28;20048;-80
2021/05/06 05:39:12;;;;;;;10.30;4.90;;;4.70;99.90;;;;;;5033651;28;20028;-83
2021/05/06 05:41:57;;;;;;;12.25;5.60;;;4.70;99.90;;;;;;5050421;28;20299;-86
2021/05/06 05:55:01;;;;;;;13.18;4.30;;;4.90;99.90;;;;;;5038030;28;20143;-84
2021/05/06 05:57:27;;;;;;;9.65;3.80;;;5.00;99.90;;;;;;5033015;28;20127;-82
2021/05/06 05:59:53;;;;;;;10.40;3.78;;;5.10;99.90;;;;;;5034652;28;20457;-79
2021/05/06 06:02:19;;;;;;;5.78;3.15;;;5.30;99.90;;;;;;5032697;28;20040;-80
2021/05/06 06:04:45;;;;;;;8.57;3.33;;;5.30;99.90;;;;;;5040546;28;21963;-82
2021/05/06 06:07:10;;;;;;;12.60;3.50;;;5.40;99.90;;;;;;5039527;28;20067;-83
2021/05/06 06:09:36;;;;;;;9.77;3.35;;;5.50;99.90;;;;;;5032041;28;20072;-83
2021/05/06 06:12:02;;;;;;;6.97;3.10;;;5.50;99.90;;;;;;5035425;28;20186;-79
2021/05/06 06:15:36;;;;;;;11.30;3.53;;;5.60;99.90;;;;;;5050673;28;20152;-82
2021/05/06 06:17:23;;;;;;;9.07;3.25;;;5.60;99.90;;;;;;5020804;28;20049;-79
2021/05/06 06:19:50;;;;;;;13.65;3.72;;;5.60;99.90;;;;;;5016516;28;20515;-80
2021/05/06 06:22:19;;;;;;;7.80;3.38;;;5.70;99.90;;;;;;5033034;28;20095;-79
2021/05/06 06:24:45;;;;;;;11.52;3.40;;;5.70;99.90;;;;;;5031920;28;20037;-84
2021/05/06 06:27:12;;;;;;;11.45;3.15;;;5.80;99.90;;;;;;5044870;28;20553;-81
2021/05/06 06:29:38;;;;;;;6.57;2.45;;;5.80;99.90;;;;;;5039859;28;20155;-79
2021/05/06 06:32:07;;;;;;;7.40;2.75;;;5.80;99.90;;;;;;5031183;28;20113;-84
2021/05/06 06:34:33;;;;;;;7.47;2.78;;;5.80;99.90;;;;;;5017609;28;20057;-80
2021/05/06 06:37:02;;;;;;;6.07;2.00;;;5.80;99.90;;;;;;5038926;28;20084;-82
2021/05/06 06:39:28;;;;;;;8.57;2.63;;;5.90;99.90;;;;;;5045220;28;20142;-80
2021/05/06 06:41:54;;;;;;;7.70;2.65;;;6.00;99.90;;;;;;5050265;28;20116;-84
2021/05/06 06:44:26;;;;;;;6.88;2.28;;;6.00;99.90;;;;;;5028539;28;20491;-82
2021/05/06 06:47:01;;;;;;;10.82;2.17;;;6.00;99.90;;;;;;5026947;28;20065;-84
2021/05/06 06:49:29;;;;;;;6.47;2.40;;;6.20;99.90;;;;;;5041143;28;20109;-82
2021/05/06 06:51:56;;;;;;;7.85;2.40;;;6.20;99.90;;;;;;5037798;28;20033;-83
2021/05/06 06:54:23;;;;;;;10.00;2.50;;;6.30;99.90;;;;;;5025424;28;20038;-83
2021/05/06 06:56:49;;;;;;;10.32;2.58;;;6.40;99.90;;;;;;5045618;28;20045;-81
2021/05/06 06:59:15;;;;;;;6.22;2.08;;;6.40;99.90;;;;;;5050678;28;20036;-83
2021/05/06 07:01:41;;;;;;;11.25;2.17;;;6.40;99.90;;;;;;5037052;28;20050;-82
2021/05/06 07:04:07;;;;;;;11.07;2.22;;;6.60;99.90;;;;;;5034597;28;20067;-85
2021/05/06 07:06:33;;;;;;;7.70;2.05;;;6.70;99.90;;;;;;5027345;28;22086;-83
2021/05/06 07:08:59;;;;;;;6.45;2.30;;;6.60;99.90;;;;;;5034253;28;20041;-84
2021/05/06 07:11:24;;;;;;;11.50;3.50;;;6.60;99.90;;;;;;5021335;28;20045;-84
2021/05/06 07:13:50;;;;;;;19.23;5.28;;;6.70;99.90;;;;;;5042005;28;20373;-84
2021/05/06 07:16:18;;;;;;;19.23;5.80;;;6.80;99.90;;;;;;5038357;28;20052;-86
2021/05/06 07:18:44;;;;;;;18.83;5.70;;;6.90;99.90;;;;;;5014252;28;20160;-86
2021/05/06 07:21:09;;;;;;;10.75;2.75;;;7.00;99.90;;;;;;5022799;28;20080;-83
2021/05/06 07:23:35;;;;;;;10.68;1.63;;;7.00;99.90;;;;;;5032644;28;20080;-84
2021/05/06 07:26:02;;;;;;;8.48;1.60;;;7.10;99.90;;;;;;5022051;28;20045;-83
2021/05/06 07:28:35;;;;;;;11.80;2.42;;;7.00;99.90;;;;;;5046664;28;20579;-80
2021/05/06 07:31:03;;;;;;;6.97;1.90;;;7.20;99.90;;;;;;5047125;28;20037;-81
2021/05/06 07:33:30;;;;;;;8.38;1.98;;;7.20;99.90;;;;;;5022403;28;20396;-78
2021/05/06 07:35:57;;;;;;;13.82;1.65;;;7.30;99.90;;;;;;5044612;28;20075;-81
2021/05/06 07:38:24;;;;;;;8.88;1.70;;;7.50;99.90;;;;;;5027098;28;20408;-78
2021/05/06 07:40:51;;;;;;;7.03;1.83;;;7.50;99.90;;;;;;5041659;28;20050;-78
2021/05/06 07:43:17;;;;;;;6.85;1.38;;;7.70;99.90;;;;;;5030037;28;20072;-81
2021/05/06 07:45:43;;;;;;;11.50;1.90;;;7.70;99.90;;;;;;5047989;28;20056;-79
2021/05/06 07:48:09;;;;;;;7.40;1.80;;;7.90;99.90;;;;;;5023379;28;20045;-78
2021/05/06 07:50:35;;;;;;;8.75;1.38;;;7.80;99.90;;;;;;5043972;28;20047;-77
2021/05/06 07:53:10;;;;;;;8.77;1.35;;;7.90;99.90;;;;;;5047576;28;20108;-77
2021/05/06 07:55:39;;;;;;;9.07;1.90;;;7.90;99.90;;;;;;5033186;28;20046;-78
2021/05/06 07:58:06;;;;;;;10.75;1.65;;;8.00;99.90;;;;;;5041621;28;20120;-80
2021/05/06 08:00:34;;;;;;;12.20;2.08;;;8.00;99.90;;;;;;5042665;28;20132;-76
2021/05/06 08:03:00;;;;;;;9.10;1.83;;;7.90;99.90;;;;;;5049418;28;20029;-75
2021/05/06 08:05:26;;;;;;;10.63;1.80;;;8.10;99.90;;;;;;5047426;28;20042;-75
2021/05/06 08:07:52;;;;;;;11.48;1.92;;;8.20;99.90;;;;;;5049337;28;20059;-77
2021/05/06 08:10:18;;;;;;;10.35;1.90;;;8.30;99.90;;;;;;5028992;28;20033;-77
2021/05/06 08:12:45;;;;;;;10.52;1.80;;;8.60;99.90;;;;;;5039046;28;20120;-77
2021/05/06 08:15:12;;;;;;;9.02;1.83;;;8.60;99.90;;;;;;5038039;28;20044;-77
2021/05/06 08:17:39;;;;;;;9.18;1.70;;;8.80;99.90;;;;;;5041179;28;20048;-77
2021/05/06 08:20:08;;;;;;;10.30;1.73;;;8.70;99.90;;;;;;5041848;28;20606;-76
2021/05/06 08:22:36;;;;;;;8.20;1.80;;;8.80;99.90;;;;;;5040415;28;20045;-74
2021/05/06 08:25:02;;;;;;;6.80;1.85;;;8.80;99.90;;;;;;5053445;28;20045;-78
2021/05/06 08:27:29;;;;;;;6.55;1.60;;;8.60;99.90;;;;;;5049273;28;20041;-75
2021/05/06 08:29:54;;;;;;;7.03;1.48;;;8.50;99.90;;;;;;5010513;28;20041;-78
2021/05/06 08:32:20;;;;;;;11.00;1.70;;;8.40;99.90;;;;;;5050661;28;20035;-77
2021/05/06 08:34:46;;;;;;;5.03;1.45;;;8.20;99.90;;;;;;5039836;28;20055;-79
2021/05/06 08:37:12;;;;;;;8.20;1.65;;;7.90;99.90;;;;;;5038051;28;20045;-77
2021/05/06 08:39:38;;;;;;;6.40;1.33;;;7.80;99.90;;;;;;5024732;28;20049;-77
2021/05/06 08:42:04;;;;;;;4.65;1.20;;;7.80;99.90;;;;;;5037590;28;20057;-78
2021/05/06 08:44:32;;;;;;;4.68;1.10;;;7.90;99.90;;;;;;5040117;28;20061;-79
2021/05/06 08:49:34;;;;;;;5.80;1.42;;;7.90;99.90;;;;;;5039000;28;20116;-76
2021/05/06 08:52:01;;;;;;;6.18;1.50;;;8.10;99.90;;;;;;5046163;28;20199;-76
2021/05/06 08:54:27;;;;;;;4.93;1.30;;;8.20;99.90;;;;;;5039609;28;20052;-79
2021/05/06 08:56:53;;;;;;;7.75;1.30;;;8.50;99.90;;;;;;5045222;28;20106;-76
2021/05/06 08:59:19;;;;;;;8.93;1.77;;;8.60;99.90;;;;;;5050358;28;20088;-77
2021/05/06 09:01:47;;;;;;;7.70;1.80;;;8.90;99.90;;;;;;5041184;28;20037;-76
2021/05/06 09:04:14;;;;;;;8.05;1.63;;;9.20;99.90;;;;;;5047808;28;20068;-75
2021/05/06 09:06:55;;;;;;;7.57;1.63;;;9.30;99.90;;;;;;5045754;28;20111;-76
2021/05/06 09:09:21;;;;;;;7.43;1.58;;;9.40;99.90;;;;;;5026657;28;20094;-76
2021/05/06 09:11:58;;;;;;;10.38;1.88;;;9.20;99.90;;;;;;5049308;28;20508;-76
2021/05/06 09:14:45;;;;;;;9.73;2.03;;;9.30;99.90;;;;;;5023683;28;20052;-76
2021/05/06 09:17:32;;;;;;;9.32;1.95;;;9.10;99.90;;;;;;5026338;28;20068;-75
2021/05/06 09:20:08;;;;;;;9.88;2.00;;;9.10;99.90;;;;;;5039819;28;20544;-75
2021/05/06 09:22:43;;;;;;;6.65;1.42;;;8.90;99.90;;;;;;5047192;28;20400;-76
2021/05/06 09:25:29;;;;;;;6.78;1.30;;;8.70;99.90;;;;;;5020528;28;21870;-76
2021/05/06 09:28:20;;;;;;;3.40;1.23;;;8.30;99.90;;;;;;5040541;28;20036;-76
2021/05/06 09:30:46;;;;;;;5.07;1.55;;;7.70;99.90;;;;;;5046435;28;20079;-77
2021/05/06 09:33:12;;;;;;;5.53;1.67;;;7.20;99.90;;;;;;5041470;28;20385;-76
2021/05/06 09:35:46;;;;;;;4.28;1.40;;;7.00;99.90;;;;;;5025454;28;20064;-75
2021/05/06 09:38:32;;;;;;;5.07;1.33;;;6.70;99.90;;;;;;5033232;28;20044;-77
2021/05/06 09:41:02;;;;;;;2.72;1.15;;;6.40;99.90;;;;;;5031230;28;20071;-76
2021/05/06 09:43:32;;;;;;;3.05;1.30;;;6.10;99.90;;;;;;5029942;28;20049;-77
2021/05/06 09:45:59;;;;;;;9.52;1.40;;;5.80;99.90;;;;;;5032766;28;20053;-74
2021/05/06 09:48:25;;;;;;;3.05;1.33;;;5.70;99.90;;;;;;5042316;28;20067;-76
2021/05/06 09:51:04;;;;;;;3.38;1.45;;;5.60;99.90;;;;;;5041564;28;20065;-77
2021/05/06 09:53:32;;;;;;;2.63;1.30;;;5.50;99.90;;;;;;5044706;28;20111;-75
2021/05/06 09:56:03;;;;;;;4.95;1.40;;;5.60;99.90;;;;;;5038884;28;20064;-76
2021/05/06 09:58:32;;;;;;;2.90;1.70;;;5.80;99.90;;;;;;5036770;28;20084;-79
2021/05/06 10:01:10;;;;;;;2.90;1.48;;;6.00;99.90;;;;;;5039941;28;20067;-78
2021/05/06 10:03:36;;;;;;;1.40;1.30;;;6.20;99.90;;;;;;5035627;28;20076;-76
2021/05/06 10:06:13;;;;;;;2.47;1.70;;;6.20;99.90;;;;;;5052254;28;20041;-77
2021/05/06 10:08:39;;;;;;;3.03;1.70;;;6.30;99.90;;;;;;5051611;28;20060;-76
2021/05/06 10:11:11;;;;;;;4.10;1.70;;;6.60;99.90;;;;;;5031894;28;20049;-78
2021/05/06 10:13:42;;;;;;;3.03;1.30;;;7.00;99.90;;;;;;5053866;28;20070;-78
2021/05/06 10:16:09;;;;;;;3.67;1.20;;;7.20;99.90;;;;;;5071030;28;20037;-77
2021/05/06 10:18:39;;;;;;;2.75;1.05;;;7.60;99.90;;;;;;5071623;28;20048;-78
2021/05/06 10:21:10;;;;;;;1.58;0.80;;;8.00;99.90;;;;;;5034002;28;20048;-78
2021/05/06 10:23:36;;;;;;;2.58;0.98;;;8.30;99.90;;;;;;5048822;28;20041;-79
2021/05/06 10:26:03;;;;;;;1.25;0.80;;;8.60;99.90;;;;;;5051999;28;20473;-80
2021/05/06 10:28:33;;;;;;;2.08;0.85;;;8.80;99.90;;;;;;5050072;28;20056;-78
2021/05/06 10:31:07;;;;;;;2.58;1.20;;;8.80;99.90;;;;;;5033637;28;20093;-77
2021/05/06 10:33:36;;;;;;;2.05;1.33;;;9.10;99.90;;;;;;5033273;28;20037;-77
2021/05/06 10:36:04;;;;;;;2.45;1.20;;;9.40;99.90;;;;;;5049828;28;20081;-80
2021/05/06 10:38:32;;;;;;;2.28;1.20;;;9.50;99.90;;;;;;5033022;28;20056;-79
2021/05/06 10:41:35;;;;;;;1.17;1.08;;;9.60;99.90;;;;;;5049435;28;20048;-77
2021/05/06 10:44:05;;;;;;;1.77;1.05;;;9.90;99.90;;;;;;5033474;28;20045;-77
2021/05/06 10:47:03;;;;;;;0.93;0.75;;;10.10;99.90;;;;;;5051733;28;20048;-80
2021/05/06 10:49:38;;;;;;;7.88;1.00;;;10.50;99.90;;;;;;5051538;28;20048;-79
2021/05/06 10:52:05;;;;;;;;;;;10.70;99.90;;;;;;5033698;28;20408;-77
2021/05/06 10:54:40;;;;;;;2.13;1.05;;;11.00;99.90;;;;;;5050748;28;19921;-77
2021/05/06 10:57:14;;;;;;;3.15;1.10;;;11.20;99.90;;;;;;5049820;28;20080;-79
2021/05/06 10:59:42;;;;;;;3.65;1.10;;;11.40;99.90;;;;;;5052777;28;20049;-79
2021/05/06 11:02:09;;;;;;;2.70;1.35;;;11.80;99.90;;;;;;5049190;28;20124;-79
2021/05/06 11:04:39;;;;;;;1.60;1.17;;;12.00;99.90;;;;;;5033866;28;20172;-77
2021/05/06 11:07:13;;;;;;;2.00;1.15;;;12.20;99.90;;;;;;5033762;28;20050;-77
2021/05/06 11:09:43;;;;;;;2.33;1.00;;;12.60;99.90;;;;;;5044058;28;20048;-79
2021/05/06 11:12:15;;;;;;;2.35;1.30;;;12.50;99.90;;;;;;5044306;28;20052;-80
2021/05/06 11:14:59;;;;;;;4.63;1.30;;;12.70;99.90;;;;;;5032933;28;20141;-78
2021/05/06 11:17:45;;;;;;;5.97;1.15;;;12.70;99.90;;;;;;5033001;28;20036;-74
2021/05/06 11:20:14;;;;;;;3.20;1.40;;;12.90;99.90;;;;;;5042495;28;20155;-76
2021/05/06 11:22:43;;;;;;;5.00;1.67;;;13.30;99.90;;;;;;5039529;28;20045;-76
2021/05/06 11:25:31;;;;;;;5.18;1.65;;;13.60;99.90;;;;;;5044500;28;20089;-78
2021/05/06 11:27:59;;;;;;;3.67;1.42;;;13.40;98.50;;;;;;5035097;28;20091;-79
2021/05/06 11:30:46;;;;;;;3.00;1.30;;;13.40;95.00;;;;;;5026011;28;20423;-79
2021/05/06 11:33:24;;;;;;;3.83;1.70;;;13.60;96.10;;;;;;5041444;28;20392;-78
2021/05/06 11:36:12;;;;;;;4.35;1.80;;;14.10;99.20;;;;;;5045086;28;20038;-76
2021/05/06 11:38:38;;;;;;;3.13;1.80;;;13.90;99.30;;;;;;5044538;28;20048;-76
2021/05/06 11:41:06;;;;;;;4.75;1.63;;;13.50;98.70;;;;;;5049350;28;20041;-76
2021/05/06 11:43:33;;;;;;;3.70;1.65;;;13.40;99.50;;;;;;5026445;28;20061;-77
2021/05/06 11:46:05;;;;;;;3.67;2.13;;;13.30;97.90;;;;;;5047038;28;20037;-78
2021/05/06 11:48:38;;;;;;;4.97;1.92;;;13.30;96.90;;;;;;5031257;28;20036;-77
2021/05/06 11:51:05;;;;;;;3.67;1.70;;;13.00;95.80;;;;;;5043496;28;20060;-77
2021/05/06 11:53:31;;;;;;;6.72;2.00;;;12.80;98.00;;;;;;5045146;28;20464;-78
2021/05/06 11:55:57;;;;;;;3.47;2.20;;;12.40;96.40;;;;;;5043068;28;20112;-78
2021/05/06 11:58:29;;;;;;;4.68;1.95;;;12.10;96.30;;;;;;5042647;28;20215;-79
2021/05/06 12:00:55;;;;;;;4.57;2.20;;;11.60;97.50;;;;;;5028585;28;20048;-79
2021/05/06 12:03:33;;;;;;;4.45;2.13;;;11.20;98.90;;;;;;5045924;28;20073;-78
2021/05/06 12:06:00;;;;;;;5.07;2.10;;;11.00;99.90;;;;;;5044588;28;20045;-78
2021/05/06 12:08:33;;;;;;;9.50;2.17;;;10.80;99.90;;;;;;5041364;28;20060;-78
2021/05/06 12:11:02;;;;;;;3.08;2.20;;;10.70;99.90;;;;;;5040710;28;20052;-77
2021/05/06 12:13:31;;;;;;;4.82;2.50;;;10.30;99.90;;;;;;5044686;28;20116;-77
2021/05/06 12:16:19;;;;;;;6.35;2.97;;;9.90;99.90;;;;;;5048854;28;20051;-78
2021/05/06 12:19:04;;;;;;;4.78;2.35;;;9.60;99.90;;;;;;5026387;28;20065;-77
2021/05/06 12:21:45;;;;;;;4.25;1.95;;;9.10;99.90;;;;;;5039825;28;20034;-77
2021/05/06 12:24:33;;;;;;;4.25;2.00;;;8.70;99.90;;;;;;5020844;28;20037;-76
2021/05/06 12:27:16;;;;;;;5.73;2.10;;;8.40;99.90;;;;;;5040787;28;20037;-77
2021/05/06 12:29:42;;;;;;;4.85;2.53;;;7.70;99.90;;;;;;5038352;28;20041;-79
2021/05/06 12:32:19;;;;;;;4.85;2.60;;;7.00;99.90;;;;;;5047915;28;20499;-76
2021/05/06 12:34:45;;;;;;;6.18;2.80;;;6.60;99.90;;;;;;5035845;28;20056;-77
2021/05/06 12:37:11;;;;;;;6.90;3.10;;;6.20;99.90;;;;;;5043854;28;20033;-76
2021/05/06 12:39:40;;;;;;;5.80;2.83;;;6.10;99.90;;;;;;5039926;28;20440;-77
2021/05/06 12:42:07;;;;;;;5.43;2.55;;;6.00;99.90;;;;;;5038668;28;20041;-77
2021/05/06 12:44:43;;;;;;;6.40;3.45;;;6.00;99.90;;;;;;5033657;28;20068;-77
2021/05/06 12:47:15;;;;;;;4.97;3.22;;;5.90;99.90;;;;;;5024283;28;20551;-77
2021/05/06 12:49:42;;;;;;;6.78;3.25;;;6.00;99.90;;;;;;5042479;28;20107;-77
2021/05/06 12:52:34;;;;;;;6.18;3.08;;;6.20;99.90;;;;;;5026364;28;20163;-76
2021/05/06 12:55:02;;;;;;;5.55;3.40;;;6.50;99.90;;;;;;5042079;28;20059;-76
2021/05/06 12:57:29;;;;;;;5.30;3.10;;;7.20;99.90;;;;;;5041362;28;20048;-75
2021/05/06 13:00:14;;;;;;;8.30;2.85;;;7.60;99.90;;;;;;5044306;28;20119;-76
2021/05/06 13:02:39;;;;;;;6.40;2.92;;;8.30;99.90;;;;;;5015228;28;20066;-76
2021/05/06 13:05:06;;;;;;;5.30;2.78;;;8.80;99.90;;;;;;5026763;28;20103;-76
2021/05/06 13:07:32;;;;;;;4.80;2.50;;;9.20;99.90;;;;;;5039079;28;20057;-75
2021/05/06 13:09:57;;;;;;;5.65;2.60;;;9.40;99.90;;;;;;5028403;28;20052;-75
2021/05/06 13:12:25;;;;;;;7.15;2.47;;;9.50;99.90;;;;;;5040470;28;20033;-75
2021/05/06 13:15:00;;;;;;;5.82;2.10;;;9.50;99.90;;;;;;5027733;28;20053;-75
2021/05/06 13:17:29;;;;;;;3.88;2.30;;;9.50;99.90;;;;;;5043060;28;20550;-75
2021/05/06 13:19:56;;;;;;;4.47;2.20;;;9.80;99.90;;;;;;5045003;28;20041;-75
2021/05/06 13:22:23;;;;;;;5.32;2.28;;;9.60;99.90;;;;;;5027449;28;20049;-76
2021/05/06 13:24:50;;;;;;;2.42;1.63;;;9.30;99.90;;;;;;5047134;28;20144;-77
2021/05/06 13:27:22;;;;;;;3.17;2.15;;;9.10;99.90;;;;;;5030589;28;20049;-78
2021/05/06 13:30:00;;;;;;;4.53;2.20;;;9.10;99.90;;;;;;5032986;28;20048;-77
2021/05/06 13:32:36;;;;;;;2.45;2.20;;;9.10;99.90;;;;;;5042916;28;20481;-77
2021/05/06 13:35:04;;;;;;;3.40;2.33;;;9.20;99.90;;;;;;5045162;28;20040;-77
2021/05/06 13:37:35;;;;;;;2.72;2.20;;;9.30;99.90;;;;;;5041539;28;20048;-77
2021/05/06 13:40:01;;;;;;;4.50;2.00;;;9.60;99.90;;;;;;5037528;28;20080;-77
2021/05/06 13:42:30;;;;;;;2.38;1.80;;;9.50;99.90;;;;;;5040189;28;20103;-76
2021/05/06 13:44:58;;;;;;;3.33;1.58;;;9.70;99.90;;;;;;5044296;28;20373;-77
2021/05/06 13:47:24;;;;;;;3.45;1.70;;;9.70;99.90;;;;;;5025307;28;20045;-77
2021/05/06 13:49:50;;;;;;;2.45;1.70;;;9.50;99.90;;;;;;5021066;28;20061;-78
2021/05/06 13:52:16;;;;;;;2.65;1.67;;;9.60;99.90;;;;;;5047564;28;20072;-77
2021/05/06 13:54:42;;;;;;;5.55;1.88;;;9.60;99.90;;;;;;5045530;28;20039;-77
2021/05/06 13:57:08;;;;;;;2.75;1.65;;;9.70;99.90;;;;;;5052413;28;20045;-77
2021/05/06 13:59:35;;;;;;;1.90;1.42;;;9.40;99.90;;;;;;5033109;28;20045;-77
2021/05/06 14:02:00;;;;;;;5.95;1.77;;;9.60;99.90;;;;;;5043347;28;20049;-77
2021/05/06 14:04:26;;;;;;;3.28;1.70;;;9.50;99.90;;;;;;5052169;28;20396;-76
2021/05/06 14:06:52;;;;;;;1.92;1.70;;;9.80;99.90;;;;;;5029436;28;20052;-77
2021/05/06 14:09:19;;;;;;;1.73;1.33;;;10.20;99.90;;;;;;5042894;28;20056;-77
2021/05/06 14:11:48;;;;;;;3.90;1.50;;;10.50;99.90;;;;;;5049956;28;20033;-77
2021/05/06 14:14:16;;;;;;;2.65;1.90;;;10.30;99.90;;;;;;5040087;28;20400;-76
2021/05/06 14:16:42;;;;;;;2.88;1.60;;;10.40;99.90;;;;;;5026407;28;20041;-77
2021/05/06 14:19:09;;;;;;;2.85;1.83;;;10.80;99.90;;;;;;5044258;28;20060;-77
2021/05/06 14:21:35;;;;;;;4.07;1.85;;;11.40;99.90;;;;;;5042904;28;20041;-77
2021/05/06 14:24:01;;;;;;;4.82;2.00;;;11.50;99.90;;;;;;5051366;28;20037;-78
2021/05/06 14:26:31;;;;;;;2.38;1.80;;;11.30;99.90;;;;;;5050105;28;20048;-78
2021/05/06 14:28:59;;;;;;;2.80;1.80;;;11.20;99.90;;;;;;5050057;28;20487;-77
2021/05/06 14:31:24;;;;;;;4.68;2.00;;;11.40;99.90;;;;;;5037973;28;20436;-77
2021/05/06 14:33:51;;;;;;;4.32;1.75;;;11.10;99.90;;;;;;5048191;28;20064;-76
2021/05/06 14:36:17;;;;;;;3.28;1.80;;;11.20;99.90;;;;;;5031882;28;20037;-76
2021/05/06 14:38:43;;;;;;;4.35;2.10;;;11.30;99.90;;;;;;5045026;28;20039;-78
2021/05/06 14:41:09;;;;;;;4.38;1.98;;;11.60;99.90;;;;;;5042754;28;20044;-77
2021/05/06 14:43:37;;;;;;;3.67;1.98;;;11.90;99.90;;;;;;5041467;28;20045;-76
2021/05/06 14:46:04;;;;;;;2.53;1.80;;;12.40;99.90;;;;;;5038554;28;20090;-78
2021/05/06 14:48:30;;;;;;;3.30;1.98;;;12.80;99.90;;;;;;5043357;28;20039;-77
2021/05/06 14:50:57;;;;;;;3.30;2.25;;;12.90;99.90;;;;;;5039491;28;20064;-77
2021/05/06 14:53:23;;;;;;;4.20;2.47;;;13.00;98.60;;;;;;5039107;28;20120;-77
2021/05/06 14:55:50;;;;;;;3.70;1.98;;;13.20;99.90;;;;;;5040520;28;20493;-77
2021/05/06 14:58:16;;;;;;;3.45;2.13;;;13.20;97.30;;;;;;5040275;28;20067;-77
2021/05/06 15:00:42;;;;;;;4.03;2.03;;;13.20;98.20;;;;;;5051674;28;20056;-77
2021/05/06 15:03:09;;;;;;;4.22;1.98;;;12.70;99.00;;;;;;5071288;28;20136;-77
2021/05/06 15:05:36;;;;;;;4.97;2.13;;;11.90;99.00;;;;;;5067391;28;20115;-77
2021/05/06 15:08:05;;;;;;;8.00;1.77;;;11.20;99.90;;;;;;5052295;28;20037;-77
2021/05/06 15:10:32;;;;;;;1.83;1.25;;;11.00;99.90;;;;;;5041352;28;20037;-77
2021/05/06 15:12:58;;;;;;;2.83;1.52;;;10.50;99.90;;;;;;5032751;28;20121;-77
2021/05/06 15:15:24;;;;;;;3.40;1.65;;;9.80;99.90;;;;;;5030293;28;20068;-77
2021/05/06 15:17:52;;;;;;;2.60;1.48;;;9.40;99.90;;;;;;5034355;28;20041;-77
2021/05/06 15:20:21;;;;;;;2.53;1.50;;;9.10;99.90;;;;;;5036696;28;20137;-76
2021/05/06 15:22:48;;;;;;;2.17;1.42;;;8.90;99.90;;;;;;5041615;28;20033;-77
2021/05/06 15:25:14;;;;;;;3.20;1.50;;;8.70;99.90;;;;;;5043137;28;20057;-77
2021/05/06 15:27:45;;;;;;;3.28;1.40;;;8.60;99.90;;;;;;5022651;28;20128;-76
2021/05/06 15:30:14;;;;;;;3.13;1.70;;;8.60;99.90;;;;;;5029414;28;20049;-76
2021/05/06 15:32:40;;;;;;;3.63;1.80;;;8.70;99.90;;;;;;5034299;28;20049;-76
2021/05/06 15:35:07;;;;;;;3.10;1.85;;;8.60;99.90;;;;;;5038106;28;20095;-76
2021/05/06 15:37:33;;;;;;;2.40;1.98;;;8.50;99.90;;;;;;5022874;28;20126;-78
2021/05/06 15:39:58;;;;;;;2.63;1.65;;;8.40;99.90;;;;;;5008484;28;20140;-76
2021/05/06 15:42:24;;;;;;;3.90;2.17;;;8.40;99.90;;;;;;5042656;28;20469;-76
2021/05/06 15:44:51;;;;;;;2.58;2.00;;;8.50;99.90;;;;;;5040850;28;20395;-76
2021/05/06 15:47:17;;;;;;;6.25;2.00;;;8.60;99.90;;;;;;5053790;28;20108;-75
2021/05/06 15:49:42;;;;;;;2.55;1.98;;;8.50;99.90;;;;;;5026091;28;20057;-76
2021/05/06 15:52:10;;;;;;;2.45;1.92;;;8.50;99.90;;;;;;5029609;28;20068;-74
2021/05/06 15:54:38;;;;;;;4.57;2.10;;;8.50;99.90;;;;;;5029613;28;20488;-76
2021/05/06 15:57:05;;;;;;;3.35;2.05;;;8.50;99.90;;;;;;5043258;28;20120;-75
2021/05/06 15:59:31;;;;;;;4.00;2.20;;;8.40;99.90;;;;;;5027002;28;20052;-75
2021/05/06 16:01:58;;;;;;;4.10;1.98;;;8.80;99.90;;;;;;5039662;28;20116;-76
2021/05/06 16:04:36;;;;;;;3.65;2.03;;;8.70;99.90;;;;;;5044007;28;20131;-75
2021/05/06 16:07:02;;;;;;;2.33;1.90;;;8.90;99.90;;;;;;5039111;28;20551;-75
2021/05/06 16:09:28;;;;;;;2.38;1.80;;;9.00;99.90;;;;;;5011729;28;20055;-76
2021/05/06 16:11:54;;;;;;;3.33;2.00;;;8.90;99.90;;;;;;5008339;28;20041;-76
2021/05/06 16:14:20;;;;;;;3.55;2.17;;;8.90;99.90;;;;;;5042093;28;20059;-76
2021/05/06 16:16:46;;;;;;;3.83;2.10;;;8.80;99.90;;;;;;5026586;28;20056;-75
2021/05/06 16:19:13;;;;;;;3.38;1.88;;;8.80;99.90;;;;;;5043411;28;20034;-76
2021/05/06 16:21:39;;;;;;;4.20;2.08;;;8.60;99.90;;;;;;5048997;28;20040;-76